sensor_id;sensor_type;location;lat;lon;timestamp;temperature;humidity
21171;DHT22;10743;52.160;20.910;2022-12-13T00:14:02;15.40;45.80
21171;DHT22;10743;52.160;20.910;2022-12-13T00:16:29;15.30;45.30
21171;DHT22;10743;52.160;20.910;2022-12-13T00:18:58;15.30;45.40
21171;DHT22;10743;52.160;20.910;2022-12-13T00:21:28;15.20;45.20
21171;DHT22;10743;52.160;20.910;2022-12-13T00:23:57;15.40;45.40
21171;DHT22;10743;52.160;20.910;2022-12-13T00:26:29;15.30;37.50
21171;DHT22;10743;52.160;20.910;2022-12-13T00:28:59;15.50;45.20
21171;DHT22;10743;52.160;20.910;2022-12-13T00:36:45;15.10;45.80
21171;DHT22;10743;52.160;20.910;2022-12-13T00:39:12;15.30;45.30
21171;DHT22;10743;52.160;20.910;2022-12-13T00:41:42;15.40;46.00
21171;DHT22;10743;52.160;20.910;2022-12-13T00:44:11;15.30;37.30
21171;DHT22;10743;52.160;20.910;2022-12-13T00:46:39;15.30;37.30
21171;DHT22;10743;52.160;20.910;2022-12-13T00:49:08;15.40;45.00
21171;DHT22;10743;52.160;20.910;2022-12-13T00:51:35;15.20;43.80
21171;DHT22;10743;52.160;20.910;2022-12-13T00:54:03;15.30;44.40
21171;DHT22;10743;52.160;20.910;2022-12-13T00:56:31;15.30;37.10
21171;DHT22;10743;52.160;20.910;2022-12-13T00:58:59;15.40;44.00
21171;DHT22;10743;52.160;20.910;2022-12-13T01:01:29;15.30;37.10
21171;DHT22;10743;52.160;20.910;2022-12-13T01:04:01;15.40;43.60
21171;DHT22;10743;52.160;20.910;2022-12-13T01:06:36;15.20;44.20
21171;DHT22;10743;52.160;20.910;2022-12-13T01:09:07;15.30;37.10
21171;DHT22;10743;52.160;20.910;2022-12-13T01:11:38;15.20;44.10
21171;DHT22;10743;52.160;20.910;2022-12-13T01:16:32;15.30;43.40
21171;DHT22;10743;52.160;20.910;2022-12-13T01:18:59;15.30;42.60
21171;DHT22;10743;52.160;20.910;2022-12-13T01:21:26;16.00;42.80
21171;DHT22;10743;52.160;20.910;2022-12-13T01:24:00;15.30;37.50
21171;DHT22;10743;52.160;20.910;2022-12-13T01:26:29;15.10;43.20
21171;DHT22;10743;52.160;20.910;2022-12-13T01:28:57;15.30;43.00
21171;DHT22;10743;52.160;20.910;2022-12-13T01:31:25;15.10;43.20
21171;DHT22;10743;52.160;20.910;2022-12-13T01:36:22;15.30;43.30
21171;DHT22;10743;52.160;20.910;2022-12-13T01:38:57;15.40;43.10
21171;DHT22;10743;52.160;20.910;2022-12-13T01:41:27;15.20;43.20
21171;DHT22;10743;52.160;20.910;2022-12-13T01:43:56;15.00;43.40
21171;DHT22;10743;52.160;20.910;2022-12-13T01:46:27;15.20;43.80
21171;DHT22;10743;52.160;20.910;2022-12-13T01:49:10;15.20;43.70
21171;DHT22;10743;52.160;20.910;2022-12-13T01:51:53;15.00;42.90
21171;DHT22;10743;52.160;20.910;2022-12-13T01:54:27;15.00;42.40
21171;DHT22;10743;52.160;20.910;2022-12-13T01:57:03;15.00;42.40
21171;DHT22;10743;52.160;20.910;2022-12-13T01:59:37;15.00;43.30
21171;DHT22;10743;52.160;20.910;2022-12-13T02:02:06;15.30;43.20
21171;DHT22;10743;52.160;20.910;2022-12-13T02:05:02;15.10;43.00
21171;DHT22;10743;52.160;20.910;2022-12-13T02:07:32;14.90;42.90
21171;DHT22;10743;52.160;20.910;2022-12-13T02:10:02;15.20;42.10
21171;DHT22;10743;52.160;20.910;2022-12-13T02:12:33;15.10;42.80
21171;DHT22;10743;52.160;20.910;2022-12-13T02:15:08;14.90;42.80
21171;DHT22;10743;52.160;20.910;2022-12-13T02:20:56;15.00;42.70
21171;DHT22;10743;52.160;20.910;2022-12-13T02:29:22;15.10;37.00
21171;DHT22;10743;52.160;20.910;2022-12-13T02:35:19;15.10;42.70
21171;DHT22;10743;52.160;20.910;2022-12-13T02:38:12;15.20;43.50
21171;DHT22;10743;52.160;20.910;2022-12-13T02:40:56;15.20;43.10
21171;DHT22;10743;52.160;20.910;2022-12-13T02:43:41;15.00;41.20
21171;DHT22;10743;52.160;20.910;2022-12-13T02:46:19;15.20;42.30
21171;DHT22;10743;52.160;20.910;2022-12-13T02:48:49;15.60;42.80
21171;DHT22;10743;52.160;20.910;2022-12-13T02:51:17;15.20;42.10
21171;DHT22;10743;52.160;20.910;2022-12-13T02:56:13;15.10;43.00
21171;DHT22;10743;52.160;20.910;2022-12-13T02:58:44;14.90;43.30
21171;DHT22;10743;52.160;20.910;2022-12-13T03:04:24;15.00;42.90
21171;DHT22;10743;52.160;20.910;2022-12-13T03:09:54;15.10;43.70
21171;DHT22;10743;52.160;20.910;2022-12-13T03:12:53;15.50;43.00
21171;DHT22;10743;52.160;20.910;2022-12-13T03:15:52;15.20;44.00
21171;DHT22;10743;52.160;20.910;2022-12-13T03:18:23;15.30;42.60
21171;DHT22;10743;52.160;20.910;2022-12-13T03:20:57;15.10;42.50
21171;DHT22;10743;52.160;20.910;2022-12-13T03:23:27;15.30;42.80
21171;DHT22;10743;52.160;20.910;2022-12-13T03:26:10;15.40;44.40
21171;DHT22;10743;52.160;20.910;2022-12-13T03:28:39;15.60;42.10
21171;DHT22;10743;52.160;20.910;2022-12-13T03:31:07;15.40;37.70
21171;DHT22;10743;52.160;20.910;2022-12-13T03:33:35;15.40;44.20
21171;DHT22;10743;52.160;20.910;2022-12-13T03:36:05;15.40;36.90
21171;DHT22;10743;52.160;20.910;2022-12-13T03:38:33;15.20;43.80
21171;DHT22;10743;52.160;20.910;2022-12-13T03:41:03;15.40;43.40
21171;DHT22;10743;52.160;20.910;2022-12-13T03:43:32;15.50;43.80
21171;DHT22;10743;52.160;20.910;2022-12-13T03:45:59;15.50;43.30
21171;DHT22;10743;52.160;20.910;2022-12-13T03:48:27;15.50;42.60
21171;DHT22;10743;52.160;20.910;2022-12-13T03:50:54;15.50;42.30
21171;DHT22;10743;52.160;20.910;2022-12-13T03:53:23;15.40;42.80
21171;DHT22;10743;52.160;20.910;2022-12-13T03:56:01;15.40;43.50
21171;DHT22;10743;52.160;20.910;2022-12-13T03:58:30;15.50;43.20
21171;DHT22;10743;52.160;20.910;2022-12-13T04:01:11;15.40;44.00
21171;DHT22;10743;52.160;20.910;2022-12-13T04:03:43;15.40;42.50
21171;DHT22;10743;52.160;20.910;2022-12-13T04:08:49;15.80;43.50
21171;DHT22;10743;52.160;20.910;2022-12-13T04:11:17;15.40;43.90
21171;DHT22;10743;52.160;20.910;2022-12-13T04:14:09;15.40;36.80
21171;DHT22;10743;52.160;20.910;2022-12-13T04:21:33;15.60;44.30
21171;DHT22;10743;52.160;20.910;2022-12-13T04:24:00;15.50;43.10
21171;DHT22;10743;52.160;20.910;2022-12-13T04:26:27;15.20;42.90
21171;DHT22;10743;52.160;20.910;2022-12-13T04:28:55;15.30;42.90
21171;DHT22;10743;52.160;20.910;2022-12-13T04:31:22;12.90;42.10
21171;DHT22;10743;52.160;20.910;2022-12-13T04:33:49;15.40;43.20
21171;DHT22;10743;52.160;20.910;2022-12-13T04:36:16;15.50;42.70
21171;DHT22;10743;52.160;20.910;2022-12-13T04:39:00;15.40;36.50
21171;DHT22;10743;52.160;20.910;2022-12-13T04:41:29;15.70;43.50
21171;DHT22;10743;52.160;20.910;2022-12-13T04:44:01;15.40;42.30
21171;DHT22;10743;52.160;20.910;2022-12-13T04:46:29;15.40;42.90
21171;DHT22;10743;52.160;20.910;2022-12-13T04:51:23;15.40;43.70
21171;DHT22;10743;52.160;20.910;2022-12-13T04:53:50;14.80;43.30
21171;DHT22;10743;52.160;20.910;2022-12-13T04:56:18;15.20;43.00
21171;DHT22;10743;52.160;20.910;2022-12-13T04:58:45;15.50;39.90
21171;DHT22;10743;52.160;20.910;2022-12-13T05:01:13;15.20;43.10
21171;DHT22;10743;52.160;20.910;2022-12-13T05:03:40;15.40;42.90
21171;DHT22;10743;52.160;20.910;2022-12-13T05:06:08;15.20;36.90
21171;DHT22;10743;52.160;20.910;2022-12-13T05:08:53;15.20;36.20
21171;DHT22;10743;52.160;20.910;2022-12-13T05:11:27;15.20;43.60
21171;DHT22;10743;52.160;20.910;2022-12-13T05:14:01;15.20;41.00
21171;DHT22;10743;52.160;20.910;2022-12-13T05:16:28;15.00;41.10
21171;DHT22;10743;52.160;20.910;2022-12-13T05:18:56;15.10;40.90
21171;DHT22;10743;52.160;20.910;2022-12-13T05:23:50;15.10;40.70
21171;DHT22;10743;52.160;20.910;2022-12-13T05:26:17;15.10;42.30
21171;DHT22;10743;52.160;20.910;2022-12-13T05:28:44;15.30;41.70
21171;DHT22;10743;52.160;20.910;2022-12-13T05:31:11;15.30;40.80
21171;DHT22;10743;52.160;20.910;2022-12-13T05:33:50;15.20;41.20
21171;DHT22;10743;52.160;20.910;2022-12-13T05:36:18;15.20;41.40
21171;DHT22;10743;52.160;20.910;2022-12-13T05:38:45;15.20;41.10
21171;DHT22;10743;52.160;20.910;2022-12-13T05:41:14;14.90;37.30
21171;DHT22;10743;52.160;20.910;2022-12-13T05:43:42;15.10;39.30
21171;DHT22;10743;52.160;20.910;2022-12-13T05:46:11;15.80;40.20
21171;DHT22;10743;52.160;20.910;2022-12-13T05:48:39;14.60;36.10
21171;DHT22;10743;52.160;20.910;2022-12-13T05:51:07;15.10;36.60
21171;DHT22;10743;52.160;20.910;2022-12-13T05:53:41;15.10;37.30
21171;DHT22;10743;52.160;20.910;2022-12-13T05:56:09;14.80;40.20
21171;DHT22;10743;52.160;20.910;2022-12-13T05:58:38;14.90;36.00
21171;DHT22;10743;52.160;20.910;2022-12-13T06:01:08;14.70;35.90
21171;DHT22;10743;52.160;20.910;2022-12-13T06:03:37;14.70;41.10
21171;DHT22;10743;52.160;20.910;2022-12-13T06:06:05;14.90;40.00
21171;DHT22;10743;52.160;20.910;2022-12-13T06:08:34;15.00;41.00
21171;DHT22;10743;52.160;20.910;2022-12-13T06:11:03;15.10;38.60
21171;DHT22;10743;52.160;20.910;2022-12-13T06:13:41;15.00;41.30
21171;DHT22;10743;52.160;20.910;2022-12-13T06:16:11;14.80;41.20
21171;DHT22;10743;52.160;20.910;2022-12-13T06:18:49;14.90;40.00
21171;DHT22;10743;52.160;20.910;2022-12-13T06:21:26;14.80;40.80
21171;DHT22;10743;52.160;20.910;2022-12-13T06:23:57;14.90;41.70
21171;DHT22;10743;52.160;20.910;2022-12-13T06:26:25;14.80;41.20
21171;DHT22;10743;52.160;20.910;2022-12-13T06:28:52;14.70;40.40
21171;DHT22;10743;52.160;20.910;2022-12-13T06:31:19;14.70;40.80
21171;DHT22;10743;52.160;20.910;2022-12-13T06:33:46;14.80;41.40
21171;DHT22;10743;52.160;20.910;2022-12-13T06:36:13;14.80;42.80
21171;DHT22;10743;52.160;20.910;2022-12-13T06:38:41;14.80;38.50
21171;DHT22;10743;52.160;20.910;2022-12-13T06:41:11;15.50;42.40
21171;DHT22;10743;52.160;20.910;2022-12-13T06:43:44;14.60;39.30
21171;DHT22;10743;52.160;20.910;2022-12-13T06:48:40;14.80;38.00
21171;DHT22;10743;52.160;20.910;2022-12-13T06:51:08;14.80;40.50
21171;DHT22;10743;52.160;20.910;2022-12-13T06:53:37;14.70;37.20
21171;DHT22;10743;52.160;20.910;2022-12-13T06:56:10;14.90;39.30
21171;DHT22;10743;52.160;20.910;2022-12-13T06:58:39;14.50;39.30
21171;DHT22;10743;52.160;20.910;2022-12-13T07:01:15;14.70;37.70
21171;DHT22;10743;52.160;20.910;2022-12-13T07:03:53;14.60;39.50
21171;DHT22;10743;52.160;20.910;2022-12-13T07:06:22;14.60;37.30
21171;DHT22;10743;52.160;20.910;2022-12-13T07:08:53;14.60;35.70
21171;DHT22;10743;52.160;20.910;2022-12-13T07:11:24;14.70;38.60
21171;DHT22;10743;52.160;20.910;2022-12-13T07:13:54;14.60;38.80
21171;DHT22;10743;52.160;20.910;2022-12-13T07:16:22;14.60;38.80
21171;DHT22;10743;52.160;20.910;2022-12-13T07:18:54;14.40;38.70
21171;DHT22;10743;52.160;20.910;2022-12-13T07:21:28;14.60;38.20
21171;DHT22;10743;52.160;20.910;2022-12-13T07:23:55;14.70;39.10
21171;DHT22;10743;52.160;20.910;2022-12-13T07:26:22;14.50;39.30
21171;DHT22;10743;52.160;20.910;2022-12-13T07:28:50;14.60;38.90
21171;DHT22;10743;52.160;20.910;2022-12-13T07:31:22;14.50;39.20
21171;DHT22;10743;52.160;20.910;2022-12-13T07:33:50;14.50;39.00
21171;DHT22;10743;52.160;20.910;2022-12-13T07:36:19;14.40;39.20
21171;DHT22;10743;52.160;20.910;2022-12-13T07:38:55;14.50;34.90
21171;DHT22;10743;52.160;20.910;2022-12-13T07:41:24;14.60;38.30
21171;DHT22;10743;52.160;20.910;2022-12-13T07:43:54;15.30;38.30
21171;DHT22;10743;52.160;20.910;2022-12-13T07:46:22;14.60;35.90
21171;DHT22;10743;52.160;20.910;2022-12-13T07:49:03;14.40;39.10
21171;DHT22;10743;52.160;20.910;2022-12-13T07:51:33;14.50;39.20
21171;DHT22;10743;52.160;20.910;2022-12-13T07:54:01;14.40;39.60
21171;DHT22;10743;52.160;20.910;2022-12-13T07:56:33;14.50;39.60
21171;DHT22;10743;52.160;20.910;2022-12-13T07:59:00;14.50;38.80
21171;DHT22;10743;52.160;20.910;2022-12-13T08:01:31;14.90;39.20
21171;DHT22;10743;52.160;20.910;2022-12-13T08:04:01;14.70;39.30
21171;DHT22;10743;52.160;20.910;2022-12-13T08:06:29;14.50;35.40
21171;DHT22;10743;52.160;20.910;2022-12-13T08:09:01;14.40;38.60
21171;DHT22;10743;52.160;20.910;2022-12-13T08:11:29;14.50;39.20
21171;DHT22;10743;52.160;20.910;2022-12-13T08:13:56;14.60;37.60
21171;DHT22;10743;52.160;20.910;2022-12-13T08:16:23;14.40;37.90
21171;DHT22;10743;52.160;20.910;2022-12-13T08:18:55;14.30;37.40
21171;DHT22;10743;52.160;20.910;2022-12-13T08:21:36;14.70;37.90
21171;DHT22;10743;52.160;20.910;2022-12-13T08:24:28;14.70;38.10
21171;DHT22;10743;52.160;20.910;2022-12-13T08:26:57;14.50;36.30
21171;DHT22;10743;52.160;20.910;2022-12-13T08:29:30;14.60;36.10
21171;DHT22;10743;52.160;20.910;2022-12-13T08:32:07;14.50;37.10
21171;DHT22;10743;52.160;20.910;2022-12-13T08:34:35;14.50;36.90
21171;DHT22;10743;52.160;20.910;2022-12-13T08:37:03;14.50;37.50
21171;DHT22;10743;52.160;20.910;2022-12-13T08:39:32;14.50;37.70
21171;DHT22;10743;52.160;20.910;2022-12-13T08:42:13;14.30;36.60
21171;DHT22;10743;52.160;20.910;2022-12-13T08:44:49;14.30;38.00
21171;DHT22;10743;52.160;20.910;2022-12-13T08:47:23;14.50;36.50
21171;DHT22;10743;52.160;20.910;2022-12-13T08:49:56;14.50;35.50
21171;DHT22;10743;52.160;20.910;2022-12-13T08:52:34;14.40;34.70
21171;DHT22;10743;52.160;20.910;2022-12-13T08:55:09;13.80;36.70
21171;DHT22;10743;52.160;20.910;2022-12-13T08:57:37;14.80;35.50
21171;DHT22;10743;52.160;20.910;2022-12-13T09:00:06;14.50;35.20
21171;DHT22;10743;52.160;20.910;2022-12-13T09:02:36;14.50;35.10
21171;DHT22;10743;52.160;20.910;2022-12-13T09:05:05;15.30;36.30
21171;DHT22;10743;52.160;20.910;2022-12-13T09:07:34;14.50;35.60
21171;DHT22;10743;52.160;20.910;2022-12-13T09:10:03;14.70;36.60
21171;DHT22;10743;52.160;20.910;2022-12-13T09:12:52;14.40;36.60
21171;DHT22;10743;52.160;20.910;2022-12-13T09:15:29;14.30;35.70
21171;DHT22;10743;52.160;20.910;2022-12-13T09:18:01;14.50;35.40
21171;DHT22;10743;52.160;20.910;2022-12-13T09:20:32;14.50;34.00
21171;DHT22;10743;52.160;20.910;2022-12-13T09:23:08;14.40;37.40
21171;DHT22;10743;52.160;20.910;2022-12-13T09:25:56;14.50;37.70
21171;DHT22;10743;52.160;20.910;2022-12-13T09:28:32;14.60;35.40
21171;DHT22;10743;52.160;20.910;2022-12-13T09:31:05;14.50;37.50
21171;DHT22;10743;52.160;20.910;2022-12-13T09:33:34;14.40;37.50
21171;DHT22;10743;52.160;20.910;2022-12-13T09:36:10;14.40;38.10
21171;DHT22;10743;52.160;20.910;2022-12-13T09:38:38;14.50;37.20
21171;DHT22;10743;52.160;20.910;2022-12-13T09:41:22;14.50;37.70
21171;DHT22;10743;52.160;20.910;2022-12-13T09:44:34;14.50;36.90
21171;DHT22;10743;52.160;20.910;2022-12-13T09:47:15;14.50;36.30
21171;DHT22;10743;52.160;20.910;2022-12-13T09:49:51;14.50;36.30
21171;DHT22;10743;52.160;20.910;2022-12-13T09:52:22;13.80;37.50
21171;DHT22;10743;52.160;20.910;2022-12-13T09:54:55;14.50;36.10
21171;DHT22;10743;52.160;20.910;2022-12-13T09:57:28;14.30;36.50
21171;DHT22;10743;52.160;20.910;2022-12-13T10:00:05;14.60;35.20
21171;DHT22;10743;52.160;20.910;2022-12-13T10:02:48;14.30;36.80
21171;DHT22;10743;52.160;20.910;2022-12-13T10:05:21;14.50;36.90
21171;DHT22;10743;52.160;20.910;2022-12-13T10:08:21;14.40;35.10
21171;DHT22;10743;52.160;20.910;2022-12-13T10:10:51;14.40;34.70
21171;DHT22;10743;52.160;20.910;2022-12-13T10:16:11;14.40;36.30
21171;DHT22;10743;52.160;20.910;2022-12-13T10:18:49;14.50;34.50
21171;DHT22;10743;52.160;20.910;2022-12-13T10:21:21;14.50;34.50
21171;DHT22;10743;52.160;20.910;2022-12-13T10:24:03;14.50;35.10
21171;DHT22;10743;52.160;20.910;2022-12-13T10:27:11;14.30;36.40
21171;DHT22;10743;52.160;20.910;2022-12-13T10:30:17;13.80;36.80
21171;DHT22;10743;52.160;20.910;2022-12-13T10:33:04;14.40;36.10
21171;DHT22;10743;52.160;20.910;2022-12-13T10:35:40;14.60;36.70
21171;DHT22;10743;52.160;20.910;2022-12-13T10:40:38;14.30;36.20
21171;DHT22;10743;52.160;20.910;2022-12-13T10:43:13;14.60;35.10
21171;DHT22;10743;52.160;20.910;2022-12-13T10:48:37;14.50;37.20
21171;DHT22;10743;52.160;20.910;2022-12-13T10:51:15;14.40;37.50
21171;DHT22;10743;52.160;20.910;2022-12-13T10:53:48;14.50;37.10
21171;DHT22;10743;52.160;20.910;2022-12-13T10:56:19;14.50;35.40
21171;DHT22;10743;52.160;20.910;2022-12-13T10:59:09;14.40;35.50
21171;DHT22;10743;52.160;20.910;2022-12-13T11:04:33;14.50;37.90
21171;DHT22;10743;52.160;20.910;2022-12-13T11:09:50;14.40;37.90
21171;DHT22;10743;52.160;20.910;2022-12-13T11:12:23;14.30;36.70
21171;DHT22;10743;52.160;20.910;2022-12-13T11:14:55;14.70;37.30
21171;DHT22;10743;52.160;20.910;2022-12-13T11:17:27;13.90;37.40
21171;DHT22;10743;52.160;20.910;2022-12-13T11:19:57;14.20;37.60
21171;DHT22;10743;52.160;20.910;2022-12-13T11:22:30;14.40;37.60
21171;DHT22;10743;52.160;20.910;2022-12-13T11:25:02;14.40;37.00
21171;DHT22;10743;52.160;20.910;2022-12-13T11:27:53;14.30;36.00
21171;DHT22;10743;52.160;20.910;2022-12-13T11:30:37;15.10;38.40
21171;DHT22;10743;52.160;20.910;2022-12-13T11:36:38;14.20;35.60
21171;DHT22;10743;52.160;20.910;2022-12-13T11:39:16;14.30;37.80
21171;DHT22;10743;52.160;20.910;2022-12-13T11:41:51;14.30;35.90
21171;DHT22;10743;52.160;20.910;2022-12-13T11:44:50;14.30;38.20
21171;DHT22;10743;52.160;20.910;2022-12-13T11:48:12;14.40;37.10
21171;DHT22;10743;52.160;20.910;2022-12-13T11:50:47;14.80;37.90
21171;DHT22;10743;52.160;20.910;2022-12-13T11:53:47;14.30;38.30
21171;DHT22;10743;52.160;20.910;2022-12-13T12:02:19;14.30;37.30
21171;DHT22;10743;52.160;20.910;2022-12-13T12:04:51;14.50;38.90
21171;DHT22;10743;52.160;20.910;2022-12-13T12:07:44;14.30;37.50
21171;DHT22;10743;52.160;20.910;2022-12-13T12:10:42;14.30;38.20
21171;DHT22;10743;52.160;20.910;2022-12-13T12:13:18;14.40;36.40
21171;DHT22;10743;52.160;20.910;2022-12-13T12:16:26;14.40;36.30
21171;DHT22;10743;52.160;20.910;2022-12-13T12:18:56;14.40;35.80
21171;DHT22;10743;52.160;20.910;2022-12-13T12:21:35;14.40;38.30
21171;DHT22;10743;52.160;20.910;2022-12-13T12:27:02;14.30;35.10
21171;DHT22;10743;52.160;20.910;2022-12-13T12:33:07;14.10;35.80
21171;DHT22;10743;52.160;20.910;2022-12-13T12:44:21;14.30;37.10
21171;DHT22;10743;52.160;20.910;2022-12-13T12:51:07;14.10;37.20
21171;DHT22;10743;52.160;20.910;2022-12-13T12:53:52;14.30;36.40
21171;DHT22;10743;52.160;20.910;2022-12-13T12:56:36;14.10;34.50
21171;DHT22;10743;52.160;20.910;2022-12-13T12:59:32;14.10;34.60
21171;DHT22;10743;52.160;20.910;2022-12-13T13:06:05;14.20;34.10
21171;DHT22;10743;52.160;20.910;2022-12-13T13:08:44;14.10;36.10
21171;DHT22;10743;52.160;20.910;2022-12-13T13:11:20;14.10;35.80
21171;DHT22;10743;52.160;20.910;2022-12-13T13:16:29;14.00;37.60
21171;DHT22;10743;52.160;20.910;2022-12-13T13:21:58;14.20;38.20
21171;DHT22;10743;52.160;20.910;2022-12-13T13:24:29;14.00;38.50
21171;DHT22;10743;52.160;20.910;2022-12-13T13:27:25;14.10;33.90
21171;DHT22;10743;52.160;20.910;2022-12-13T13:30:05;14.00;34.50
21171;DHT22;10743;52.160;20.910;2022-12-13T13:32:43;14.00;37.30
21171;DHT22;10743;52.160;20.910;2022-12-13T13:38:03;14.00;34.50
21171;DHT22;10743;52.160;20.910;2022-12-13T13:40:36;14.00;34.50
21171;DHT22;10743;52.160;20.910;2022-12-13T13:43:13;13.80;37.00
21171;DHT22;10743;52.160;20.910;2022-12-13T13:45:51;14.00;37.70
21171;DHT22;10743;52.160;20.910;2022-12-13T13:48:34;13.90;34.40
21171;DHT22;10743;52.160;20.910;2022-12-13T14:01:34;13.80;37.70
21171;DHT22;10743;52.160;20.910;2022-12-13T14:17:34;13.80;38.10
21171;DHT22;10743;52.160;20.910;2022-12-13T14:28:59;13.60;34.80
21171;DHT22;10743;52.160;20.910;2022-12-13T14:31:44;13.80;35.40
21171;DHT22;10743;52.160;20.910;2022-12-13T14:34:22;13.70;36.40
21171;DHT22;10743;52.160;20.910;2022-12-13T14:36:59;16.00;37.50
21171;DHT22;10743;52.160;20.910;2022-12-13T14:39:29;13.10;34.60
21171;DHT22;10743;52.160;20.910;2022-12-13T14:42:01;12.80;35.50
21171;DHT22;10743;52.160;20.910;2022-12-13T14:44:40;12.90;36.10
21171;DHT22;10743;52.160;20.910;2022-12-13T14:47:10;13.60;36.10
21171;DHT22;10743;52.160;20.910;2022-12-13T14:49:40;13.60;36.40
21171;DHT22;10743;52.160;20.910;2022-12-13T14:52:26;14.00;37.00
21171;DHT22;10743;52.160;20.910;2022-12-13T14:55:00;13.40;36.90
21171;DHT22;10743;52.160;20.910;2022-12-13T14:57:31;13.70;36.80
21171;DHT22;10743;52.160;20.910;2022-12-13T15:00:19;13.50;34.20
21171;DHT22;10743;52.160;20.910;2022-12-13T15:02:54;13.60;35.30
21171;DHT22;10743;52.160;20.910;2022-12-13T15:05:28;13.40;37.50
21171;DHT22;10743;52.160;20.910;2022-12-13T15:07:58;13.40;34.50
21171;DHT22;10743;52.160;20.910;2022-12-13T15:13:04;13.30;37.30
21171;DHT22;10743;52.160;20.910;2022-12-13T15:15:36;13.40;34.60
21171;DHT22;10743;52.160;20.910;2022-12-13T15:18:23;13.20;36.70
21171;DHT22;10743;52.160;20.910;2022-12-13T15:21:00;13.30;34.60
21171;DHT22;10743;52.160;20.910;2022-12-13T15:23:35;13.50;36.90
21171;DHT22;10743;52.160;20.910;2022-12-13T15:26:21;13.30;36.70
21171;DHT22;10743;52.160;20.910;2022-12-13T15:29:03;13.30;37.90
21171;DHT22;10743;52.160;20.910;2022-12-13T15:31:37;13.10;36.80
21171;DHT22;10743;52.160;20.910;2022-12-13T15:34:32;13.30;34.00
21171;DHT22;10743;52.160;20.910;2022-12-13T15:37:04;13.30;37.10
21171;DHT22;10743;52.160;20.910;2022-12-13T15:39:59;13.10;35.00
21171;DHT22;10743;52.160;20.910;2022-12-13T15:42:33;13.30;37.70
21171;DHT22;10743;52.160;20.910;2022-12-13T15:45:24;13.20;37.30
21171;DHT22;10743;52.160;20.910;2022-12-13T15:48:00;13.40;38.60
21171;DHT22;10743;52.160;20.910;2022-12-13T15:50:35;13.10;35.70
21171;DHT22;10743;52.160;20.910;2022-12-13T15:53:24;13.20;34.80
21171;DHT22;10743;52.160;20.910;2022-12-13T15:55:53;13.40;37.20
21171;DHT22;10743;52.160;20.910;2022-12-13T15:58:32;13.30;34.50
21171;DHT22;10743;52.160;20.910;2022-12-13T16:01:01;13.20;36.80
21171;DHT22;10743;52.160;20.910;2022-12-13T16:03:43;13.20;37.20
21171;DHT22;10743;52.160;20.910;2022-12-13T16:06:16;13.20;37.60
21171;DHT22;10743;52.160;20.910;2022-12-13T16:08:50;13.30;34.60
21171;DHT22;10743;52.160;20.910;2022-12-13T16:11:26;13.40;37.30
21171;DHT22;10743;52.160;20.910;2022-12-13T16:17:04;14.00;37.20
21171;DHT22;10743;52.160;20.910;2022-12-13T16:19:35;13.10;36.40
21171;DHT22;10743;52.160;20.910;2022-12-13T16:22:02;13.30;35.30
21171;DHT22;10743;52.160;20.910;2022-12-13T16:24:35;13.30;39.20
21171;DHT22;10743;52.160;20.910;2022-12-13T16:27:02;13.30;35.60
21171;DHT22;10743;52.160;20.910;2022-12-13T16:29:34;13.10;36.90
21171;DHT22;10743;52.160;20.910;2022-12-13T16:32:03;13.40;38.20
21171;DHT22;10743;52.160;20.910;2022-12-13T16:37:03;13.00;38.20
21171;DHT22;10743;52.160;20.910;2022-12-13T16:39:51;13.40;35.30
21171;DHT22;10743;52.160;20.910;2022-12-13T16:42:18;13.40;37.50
21171;DHT22;10743;52.160;20.910;2022-12-13T16:44:46;13.30;38.10
21171;DHT22;10743;52.160;20.910;2022-12-13T16:47:13;13.40;38.90
21171;DHT22;10743;52.160;20.910;2022-12-13T16:49:52;13.30;37.60
21171;DHT22;10743;52.160;20.910;2022-12-13T16:52:19;13.10;37.10
21171;DHT22;10743;52.160;20.910;2022-12-13T16:54:47;12.80;37.10
21171;DHT22;10743;52.160;20.910;2022-12-13T16:57:14;13.30;38.10
21171;DHT22;10743;52.160;20.910;2022-12-13T16:59:41;13.50;37.70
21171;DHT22;10743;52.160;20.910;2022-12-13T17:02:15;13.30;38.30
21171;DHT22;10743;52.160;20.910;2022-12-13T17:04:43;13.30;38.00
21171;DHT22;10743;52.160;20.910;2022-12-13T17:07:10;13.30;37.90
21171;DHT22;10743;52.160;20.910;2022-12-13T17:09:37;13.40;37.70
21171;DHT22;10743;52.160;20.910;2022-12-13T17:12:05;13.30;37.80
21171;DHT22;10743;52.160;20.910;2022-12-13T17:14:32;13.40;38.40
21171;DHT22;10743;52.160;20.910;2022-12-13T17:16:59;13.30;36.70
21171;DHT22;10743;52.160;20.910;2022-12-13T17:19:26;13.30;37.80
21171;DHT22;10743;52.160;20.910;2022-12-13T17:21:53;13.50;37.80
21171;DHT22;10743;52.160;20.910;2022-12-13T17:24:20;13.40;35.30
21171;DHT22;10743;52.160;20.910;2022-12-13T17:26:47;13.00;37.00
21171;DHT22;10743;52.160;20.910;2022-12-13T17:29:22;13.40;37.40
21171;DHT22;10743;52.160;20.910;2022-12-13T17:34:18;13.40;37.20
21171;DHT22;10743;52.160;20.910;2022-12-13T17:36:45;13.40;37.80
21171;DHT22;10743;52.160;20.910;2022-12-13T17:39:12;13.30;37.80
21171;DHT22;10743;52.160;20.910;2022-12-13T17:41:39;13.50;38.20
21171;DHT22;10743;52.160;20.910;2022-12-13T17:46:33;13.60;38.20
21171;DHT22;10743;52.160;20.910;2022-12-13T17:49:00;13.50;37.70
21171;DHT22;10743;52.160;20.910;2022-12-13T17:51:27;13.40;37.00
21171;DHT22;10743;52.160;20.910;2022-12-13T17:53:55;13.50;38.00
21171;DHT22;10743;52.160;20.910;2022-12-13T17:56:22;13.90;38.30
21171;DHT22;10743;52.160;20.910;2022-12-13T17:58:49;13.40;38.10
21171;DHT22;10743;52.160;20.910;2022-12-13T18:01:18;13.40;38.70
21171;DHT22;10743;52.160;20.910;2022-12-13T18:03:49;13.30;38.80
21171;DHT22;10743;52.160;20.910;2022-12-13T18:06:18;13.00;38.60
21171;DHT22;10743;52.160;20.910;2022-12-13T18:08:46;13.40;39.10
21171;DHT22;10743;52.160;20.910;2022-12-13T18:11:15;13.20;38.30
21171;DHT22;10743;52.160;20.910;2022-12-13T18:14:01;13.40;38.30
21171;DHT22;10743;52.160;20.910;2022-12-13T18:16:29;13.30;38.50
21171;DHT22;10743;52.160;20.910;2022-12-13T18:19:05;13.20;38.90
21171;DHT22;10743;52.160;20.910;2022-12-13T18:24:04;13.30;38.50
21171;DHT22;10743;52.160;20.910;2022-12-13T18:36:23;13.20;34.80
21171;DHT22;10743;52.160;20.910;2022-12-13T18:41:23;13.20;34.80
21171;DHT22;10743;52.160;20.910;2022-12-13T18:43:58;13.20;34.80
21171;DHT22;10743;52.160;20.910;2022-12-13T18:46:32;13.10;34.80
21171;DHT22;10743;52.160;20.910;2022-12-13T18:49:02;13.20;34.90